createdAt,value
2022-09-06T00:00:18.059Z,100.00
2022-09-06T00:02:55.487Z,100.00
2022-09-06T00:05:22.403Z,100.00
2022-09-06T00:07:49.660Z,100.00
2022-09-06T00:10:16.542Z,100.00
2022-09-06T00:12:43.338Z,100.00
2022-09-06T00:15:10.919Z,100.00
2022-09-06T00:17:37.718Z,100.00
2022-09-06T00:20:05.516Z,100.00
2022-09-06T00:22:32.559Z,100.00
2022-09-06T00:24:59.400Z,100.00
2022-09-06T00:27:26.395Z,100.00
2022-09-06T00:29:53.416Z,100.00
2022-09-06T00:32:20.202Z,100.00
2022-09-06T00:34:47.000Z,100.00
2022-09-06T00:37:14.164Z,100.00
2022-09-06T00:39:41.108Z,100.00
2022-09-06T00:42:10.008Z,100.00
2022-09-06T00:44:37.967Z,100.00
2022-09-06T00:47:06.300Z,100.00
2022-09-06T00:49:41.322Z,100.00
2022-09-06T00:52:12.107Z,100.00
2022-09-06T00:54:39.984Z,100.00
2022-09-06T00:57:07.305Z,100.00
2022-09-06T00:59:37.628Z,100.00
2022-09-06T01:02:05.666Z,100.00
2022-09-06T01:04:33.380Z,100.00
2022-09-06T01:07:06.718Z,100.00
2022-09-06T01:09:48.429Z,100.00
2022-09-06T01:12:58.683Z,100.00
2022-09-06T01:15:28.308Z,100.00
2022-09-06T01:18:32.025Z,100.00
2022-09-06T01:21:10.494Z,100.00
2022-09-06T01:24:34.816Z,100.00
2022-09-06T01:27:25.963Z,100.00
2022-09-06T01:30:04.140Z,100.00
2022-09-06T01:32:39.212Z,100.00
2022-09-06T01:35:20.526Z,100.00
2022-09-06T01:37:48.207Z,100.00
2022-09-06T01:40:15.500Z,100.00
2022-09-06T01:42:45.099Z,100.00
2022-09-06T01:45:16.810Z,100.00
2022-09-06T01:48:08.203Z,100.00
2022-09-06T01:50:47.710Z,100.00
2022-09-06T01:53:42.395Z,100.00
2022-09-06T01:56:31.736Z,100.00
2022-09-06T01:59:01.455Z,100.00
2022-09-06T02:01:37.053Z,100.00
2022-09-06T02:04:12.756Z,100.00
2022-09-06T02:06:45.186Z,100.00
2022-09-06T02:09:19.866Z,100.00
2022-09-06T02:11:51.671Z,100.00
2022-09-06T02:14:23.473Z,100.00
2022-09-06T02:16:53.862Z,100.00
2022-09-06T02:19:29.940Z,100.00
2022-09-06T02:21:58.374Z,100.00
2022-09-06T02:24:30.684Z,100.00
2022-09-06T02:26:57.721Z,100.00
2022-09-06T02:29:24.741Z,100.00
2022-09-06T02:32:01.780Z,100.00
2022-09-06T02:34:29.189Z,100.00
2022-09-06T02:36:56.424Z,100.00
2022-09-06T02:39:23.307Z,100.00
2022-09-06T02:41:50.159Z,100.00
2022-09-06T02:44:17.227Z,100.00
2022-09-06T02:46:44.023Z,100.00
2022-09-06T02:49:10.842Z,100.00
2022-09-06T02:51:39.545Z,100.00
2022-09-06T02:54:06.692Z,100.00
2022-09-06T02:56:34.550Z,100.00
2022-09-06T02:59:01.548Z,100.00
2022-09-06T03:01:28.359Z,100.00
2022-09-06T03:03:56.108Z,100.00
2022-09-06T03:06:23.383Z,100.00
2022-09-06T03:08:50.371Z,100.00
2022-09-06T03:11:17.614Z,100.00
2022-09-06T03:13:44.632Z,100.00
2022-09-06T03:16:11.673Z,100.00
2022-09-06T03:18:38.508Z,100.00
2022-09-06T03:21:05.728Z,100.00
2022-09-06T03:23:32.532Z,100.00
2022-09-06T03:25:59.334Z,100.00
2022-09-06T03:28:26.996Z,100.00
2022-09-06T03:30:54.037Z,100.00
2022-09-06T03:33:21.214Z,100.00
2022-09-06T03:35:54.394Z,100.00
2022-09-06T03:38:22.220Z,100.00
2022-09-06T03:40:49.838Z,100.00
2022-09-06T03:43:17.892Z,100.00
2022-09-06T03:45:47.003Z,100.00
2022-09-06T03:48:14.809Z,100.00
2022-09-06T03:50:49.660Z,100.00
2022-09-06T03:53:17.928Z,100.00
2022-09-06T03:55:49.551Z,100.00
2022-09-06T03:58:17.775Z,100.00
2022-09-06T04:00:45.313Z,100.00
2022-09-06T04:03:12.917Z,100.00
2022-09-06T04:05:39.804Z,100.00
2022-09-06T04:08:06.885Z,100.00
2022-09-06T04:10:34.019Z,100.00
2022-09-06T04:13:00.866Z,100.00
2022-09-06T04:15:27.894Z,100.00
2022-09-06T04:17:54.724Z,100.00
2022-09-06T04:20:21.734Z,100.00
2022-09-06T04:22:48.726Z,100.00
2022-09-06T04:25:15.838Z,100.00
2022-09-06T04:27:42.626Z,100.00
2022-09-06T04:30:10.024Z,100.00
2022-09-06T04:32:36.960Z,100.00
2022-09-06T04:35:04.088Z,100.00
2022-09-06T04:37:31.103Z,100.00
2022-09-06T04:39:57.980Z,100.00
2022-09-06T04:42:24.854Z,100.00
2022-09-06T04:44:51.902Z,100.00
2022-09-06T04:47:19.368Z,100.00
2022-09-06T04:49:49.480Z,100.00
2022-09-06T04:52:17.010Z,100.00
2022-09-06T04:54:43.936Z,100.00
2022-09-06T04:57:10.834Z,100.00
2022-09-06T04:59:37.943Z,100.00
2022-09-06T05:02:04.935Z,100.00
2022-09-06T05:04:31.775Z,100.00
2022-09-06T05:07:06.629Z,95.23
2022-09-06T05:09:33.922Z,88.68
2022-09-06T05:12:01.752Z,88.60
2022-09-06T05:14:29.095Z,88.38
2022-09-06T05:16:56.015Z,85.59
2022-09-06T05:19:23.252Z,84.85
2022-09-06T05:21:51.903Z,83.42
2022-09-06T05:24:19.023Z,80.90
2022-09-06T05:26:45.993Z,80.21
2022-09-06T05:29:13.065Z,77.99
2022-09-06T05:31:39.963Z,75.75
2022-09-06T05:34:06.987Z,73.25
2022-09-06T05:36:34.144Z,69.03
2022-09-06T05:39:00.967Z,65.88
2022-09-06T05:41:28.082Z,61.19
2022-09-06T05:43:55.219Z,57.50
2022-09-06T05:46:22.127Z,54.33
2022-09-06T05:49:04.855Z,52.56
2022-09-06T05:51:32.877Z,50.47
2022-09-06T05:54:00.070Z,49.35
2022-09-06T05:56:26.852Z,48.42
2022-09-06T05:58:53.799Z,46.95
2022-09-06T06:01:26.899Z,46.99
2022-09-06T06:03:55.297Z,45.63
2022-09-06T06:06:23.395Z,46.58
2022-09-06T06:08:50.239Z,47.01
2022-09-06T06:11:17.739Z,45.65
2022-09-06T06:13:44.939Z,45.19
2022-09-06T06:16:14.052Z,43.31
2022-09-06T06:18:41.039Z,42.64
2022-09-06T06:21:22.612Z,41.14
2022-09-06T06:23:52.362Z,40.17
2022-09-06T06:26:20.126Z,38.11
2022-09-06T06:28:47.143Z,38.05
2022-09-06T06:31:15.343Z,37.57
2022-09-06T06:33:42.716Z,36.06
2022-09-06T06:36:12.228Z,35.55
2022-09-06T06:38:40.653Z,35.20
2022-09-06T06:41:09.555Z,33.48
2022-09-06T06:43:37.881Z,34.39
2022-09-06T06:46:13.479Z,33.24
2022-09-06T06:48:41.999Z,31.67
2022-09-06T06:51:13.314Z,31.92
2022-09-06T06:53:40.206Z,32.54
2022-09-06T06:56:19.339Z,31.40
2022-09-06T06:58:48.547Z,30.19
2022-09-06T07:01:16.792Z,30.13
2022-09-06T07:03:43.772Z,29.31
2022-09-06T07:06:10.995Z,28.45
2022-09-06T07:08:38.621Z,27.61
2022-09-06T07:11:07.298Z,27.33
2022-09-06T07:13:34.363Z,27.03
2022-09-06T07:16:20.260Z,25.62
2022-09-06T07:18:50.298Z,24.34
2022-09-06T07:24:10.642Z,25.97
2022-09-06T07:26:40.246Z,26.75
2022-09-06T07:29:08.157Z,26.83
2022-09-06T07:34:25.214Z,26.15
2022-09-06T07:36:56.369Z,26.58
2022-09-06T07:39:23.708Z,26.44
2022-09-06T07:41:50.797Z,26.38
2022-09-06T07:44:17.578Z,26.23
2022-09-06T07:46:44.836Z,27.01
2022-09-06T07:49:11.769Z,27.44
2022-09-06T07:51:38.553Z,26.34
2022-09-06T07:54:29.232Z,27.17
2022-09-06T07:56:53.816Z,27.02
2022-09-06T07:59:20.890Z,26.33
2022-09-06T08:01:48.361Z,26.69
2022-09-06T08:04:15.706Z,26.66
2022-09-06T08:09:33.495Z,24.94
2022-09-06T08:12:06.720Z,25.35
2022-09-06T08:14:34.340Z,25.26
2022-09-06T08:17:02.120Z,25.20
2022-09-06T08:19:28.976Z,25.91
2022-09-06T08:21:56.186Z,23.74
2022-09-06T08:24:23.384Z,22.42
2022-09-06T08:26:50.374Z,23.91
2022-09-06T08:29:17.401Z,24.45
2022-09-06T08:31:45.289Z,24.31
2022-09-06T08:34:12.907Z,24.11
2022-09-06T08:36:40.440Z,24.35
2022-09-06T08:39:10.048Z,24.03
2022-09-06T08:41:58.592Z,23.50
2022-09-06T08:44:55.206Z,23.55
2022-09-06T08:47:22.965Z,22.87
2022-09-06T08:50:07.501Z,23.92
2022-09-06T08:53:06.505Z,22.71
2022-09-06T08:55:52.948Z,23.91
2022-09-06T08:58:37.726Z,25.78
2022-09-06T09:01:14.433Z,25.70
2022-09-06T09:03:43.394Z,25.39
2022-09-06T09:06:10.888Z,25.08
2022-09-06T09:09:03.755Z,23.66
2022-09-06T09:11:33.603Z,23.93
2022-09-06T09:14:04.194Z,23.88
2022-09-06T09:16:31.409Z,23.09
2022-09-06T09:19:02.520Z,23.42
2022-09-06T09:21:33.533Z,24.05
2022-09-06T09:24:07.019Z,22.23
2022-09-06T09:26:51.296Z,22.58
2022-09-06T09:29:18.506Z,22.90
2022-09-06T09:31:58.510Z,23.00
2022-09-06T09:34:39.924Z,23.83
2022-09-06T09:40:33.474Z,24.55
2022-09-06T09:43:15.085Z,23.58
2022-09-06T09:45:43.369Z,23.98
2022-09-06T09:48:27.143Z,23.91
2022-09-06T09:50:56.125Z,24.58
2022-09-06T09:53:24.349Z,22.59
2022-09-06T09:55:59.006Z,23.37
2022-09-06T09:58:36.284Z,23.57
2022-09-06T10:01:23.086Z,23.64
2022-09-06T10:09:36.298Z,22.29
2022-09-06T10:12:03.533Z,21.95
2022-09-06T10:14:42.142Z,21.14
2022-09-06T10:17:17.628Z,22.04
2022-09-06T10:19:45.784Z,21.81
2022-09-06T10:22:25.589Z,20.43
2022-09-06T10:25:19.247Z,20.44
2022-09-06T10:28:11.645Z,21.25
2022-09-06T10:31:12.960Z,21.28
2022-09-06T10:34:12.336Z,20.62
2022-09-06T10:36:45.595Z,18.91
2022-09-06T10:39:30.944Z,19.12
2022-09-06T10:42:02.578Z,19.77
2022-09-06T10:44:45.809Z,20.86
2022-09-06T10:47:14.961Z,20.81
2022-09-06T10:49:45.628Z,21.78
2022-09-06T10:52:19.024Z,21.42
2022-09-06T10:54:47.418Z,20.74
2022-09-06T11:00:14.916Z,19.21
2022-09-06T11:05:54.572Z,21.19
2022-09-06T11:08:51.172Z,20.20
2022-09-06T11:12:16.132Z,20.30
2022-09-06T11:14:43.020Z,21.17
2022-09-06T11:17:41.120Z,20.25
2022-09-06T11:20:08.087Z,20.90
2022-09-06T11:22:53.424Z,20.37
2022-09-06T11:25:54.506Z,20.80
2022-09-06T11:28:52.676Z,22.06
2022-09-06T11:34:22.693Z,21.63
2022-09-06T11:36:56.165Z,22.48
2022-09-06T11:42:49.366Z,22.33
2022-09-06T11:45:38.698Z,21.32
2022-09-06T11:48:23.626Z,21.41
2022-09-06T11:50:53.663Z,20.94
2022-09-06T11:53:33.971Z,20.60
2022-09-06T11:56:00.894Z,21.79
2022-09-06T11:58:51.318Z,21.78
2022-09-06T12:01:18.955Z,21.71
2022-09-06T12:04:05.479Z,22.00
2022-09-06T12:06:40.083Z,22.89
2022-09-06T12:09:28.563Z,22.35
2022-09-06T12:11:56.717Z,23.66
2022-09-06T12:14:42.591Z,22.01
2022-09-06T12:17:09.945Z,22.57
2022-09-06T12:19:54.893Z,23.15
2022-09-06T12:22:27.697Z,23.75
2022-09-06T12:25:17.054Z,23.63
2022-09-06T12:27:56.374Z,23.44
2022-09-06T12:30:38.860Z,23.27
2022-09-06T12:33:24.663Z,23.23
2022-09-06T12:38:25.913Z,23.66
2022-09-06T12:40:58.450Z,23.12
2022-09-06T12:43:27.016Z,22.97
2022-09-06T12:45:54.053Z,23.55
2022-09-06T12:48:35.365Z,23.21
2022-09-06T12:51:06.906Z,22.96
2022-09-06T12:53:35.084Z,22.23
2022-09-06T12:56:04.819Z,22.41
2022-09-06T12:58:32.124Z,22.79
2022-09-06T13:01:07.790Z,23.11
2022-09-06T13:03:45.444Z,23.74
2022-09-06T13:06:24.545Z,24.24
2022-09-06T13:08:56.107Z,24.73
2022-09-06T13:11:28.234Z,24.33
2022-09-06T13:13:55.851Z,24.27
2022-09-06T13:16:26.058Z,25.90
2022-09-06T13:18:53.424Z,26.10
2022-09-06T13:21:35.674Z,26.99
2022-09-06T13:24:19.685Z,26.81
2022-09-06T13:26:46.810Z,28.58
2022-09-06T13:29:16.440Z,29.58
2022-09-06T13:31:47.582Z,29.31
2022-09-06T13:34:28.330Z,29.74
2022-09-06T13:37:01.527Z,30.39
2022-09-06T13:39:33.439Z,30.88
2022-09-06T13:42:08.803Z,30.61
2022-09-06T13:44:38.147Z,30.56
2022-09-06T13:47:05.572Z,29.97
2022-09-06T13:49:33.928Z,30.07
2022-09-06T13:52:03.890Z,30.32
2022-09-06T13:54:33.460Z,30.08
2022-09-06T13:57:01.853Z,31.06
2022-09-06T13:59:30.416Z,31.79
2022-09-06T14:02:09.958Z,32.32
2022-09-06T14:04:37.158Z,30.97
2022-09-06T14:07:05.375Z,31.43
2022-09-06T14:09:32.720Z,31.83
2022-09-06T14:12:00.846Z,31.96
2022-09-06T14:14:27.680Z,31.49
2022-09-06T14:16:54.488Z,30.68
2022-09-06T14:19:21.883Z,30.45
2022-09-06T14:21:48.918Z,31.10
2022-09-06T14:24:15.790Z,31.91
2022-09-06T14:26:42.886Z,31.97
2022-09-06T14:29:09.748Z,32.31
2022-09-06T14:31:36.629Z,31.64
2022-09-06T14:34:04.223Z,32.14
2022-09-06T14:36:33.211Z,32.46
2022-09-06T14:39:01.565Z,32.65
2022-09-06T14:41:28.848Z,32.75
2022-09-06T14:43:57.841Z,32.49
2022-09-06T14:46:27.446Z,32.61
2022-09-06T14:49:10.071Z,32.70
2022-09-06T14:51:38.622Z,32.92
2022-09-06T14:54:11.714Z,32.83
2022-09-06T14:56:40.477Z,33.51
2022-09-06T14:59:09.237Z,33.53
2022-09-06T15:01:38.599Z,32.49
2022-09-06T15:04:07.995Z,32.99
2022-09-06T15:06:37.082Z,32.29
2022-09-06T15:09:04.669Z,32.60
2022-09-06T15:11:53.612Z,33.06
2022-09-06T15:14:22.681Z,33.59
2022-09-06T15:16:55.980Z,33.63
2022-09-06T15:19:28.089Z,33.71
2022-09-06T15:21:56.307Z,34.50
2022-09-06T15:24:23.607Z,34.28
2022-09-06T15:26:50.669Z,34.20
2022-09-06T15:29:17.718Z,34.70
2022-09-06T15:31:50.186Z,34.66
2022-09-06T15:34:22.606Z,34.01
2022-09-06T15:36:50.613Z,34.30
2022-09-06T15:39:18.027Z,34.40
2022-09-06T15:41:45.113Z,34.66
2022-09-06T15:44:17.037Z,34.90
2022-09-06T15:46:50.150Z,35.18
2022-09-06T15:49:27.474Z,35.57
2022-09-06T15:51:56.656Z,35.65
2022-09-06T15:54:42.402Z,35.41
2022-09-06T15:57:09.584Z,35.81
2022-09-06T15:59:36.657Z,36.52
2022-09-06T16:02:03.680Z,36.89
2022-09-06T16:04:30.768Z,36.64
2022-09-06T16:06:58.751Z,36.60
2022-09-06T16:09:25.816Z,36.93
2022-09-06T16:11:52.817Z,37.40
2022-09-06T16:14:20.335Z,37.21
2022-09-06T16:16:47.561Z,36.98
2022-09-06T16:19:14.418Z,37.09
2022-09-06T16:21:43.261Z,37.65
2022-09-06T16:24:13.328Z,37.88
2022-09-06T16:26:42.905Z,38.33
2022-09-06T16:29:11.804Z,38.01
2022-09-06T16:31:40.488Z,38.31
2022-09-06T16:34:12.040Z,38.34
2022-09-06T16:36:39.398Z,38.68
2022-09-06T16:39:07.224Z,38.78
2022-09-06T16:41:37.075Z,39.24
2022-09-06T16:44:04.351Z,39.55
2022-09-06T16:46:31.321Z,40.18
2022-09-06T16:49:04.499Z,40.57
2022-09-06T16:51:32.058Z,41.02
2022-09-06T16:54:00.580Z,41.82
2022-09-06T16:56:33.321Z,42.16
2022-09-06T16:59:02.647Z,42.44
2022-09-06T17:01:31.318Z,42.55
2022-09-06T17:04:00.906Z,42.75
2022-09-06T17:06:29.290Z,43.14
2022-09-06T17:09:00.124Z,45.13
2022-09-06T17:11:28.510Z,46.52
2022-09-06T17:13:56.715Z,47.94
2022-09-06T17:16:43.420Z,49.08
2022-09-06T17:19:11.192Z,49.39
2022-09-06T17:21:39.308Z,49.79
2022-09-06T17:24:07.828Z,52.03
2022-09-06T17:26:37.937Z,54.23
2022-09-06T17:29:05.482Z,56.67
2022-09-06T17:31:32.431Z,57.70
2022-09-06T17:34:02.344Z,58.03
2022-09-06T17:36:31.786Z,58.13
2022-09-06T17:39:01.922Z,58.66
2022-09-06T17:41:34.786Z,58.87
2022-09-06T17:44:01.673Z,60.19
2022-09-06T17:46:29.206Z,61.44
2022-09-06T17:48:56.951Z,62.21
2022-09-06T17:51:24.856Z,63.21
2022-09-06T17:53:53.019Z,64.89
2022-09-06T17:56:20.780Z,65.61
2022-09-06T17:58:59.417Z,65.94
2022-09-06T18:01:29.705Z,66.36
2022-09-06T18:03:57.321Z,66.19
2022-09-06T18:06:25.885Z,67.45
2022-09-06T18:08:55.263Z,68.43
2022-09-06T18:11:27.358Z,68.23
2022-09-06T18:14:05.180Z,68.31
2022-09-06T18:16:34.055Z,68.52
2022-09-06T18:19:04.634Z,69.18
2022-09-06T18:21:33.861Z,72.52
2022-09-06T18:24:00.816Z,74.50
2022-09-06T18:26:27.943Z,77.74
2022-09-06T18:28:54.846Z,79.08
2022-09-06T18:31:24.178Z,78.20
2022-09-06T18:33:51.628Z,77.80
2022-09-06T18:36:19.719Z,77.16
2022-09-06T18:38:46.846Z,77.47
2022-09-06T18:41:34.305Z,78.14
2022-09-06T18:44:02.971Z,78.27
2022-09-06T18:46:31.928Z,78.66
2022-09-06T18:48:59.275Z,79.91
2022-09-06T18:51:26.712Z,80.95
2022-09-06T18:53:56.258Z,81.42
2022-09-06T18:56:23.524Z,81.83
2022-09-06T18:58:51.939Z,82.93
2022-09-06T19:01:20.931Z,82.46
2022-09-06T19:03:47.839Z,82.08
2022-09-06T19:06:17.057Z,84.12
2022-09-06T19:08:44.010Z,85.90
2022-09-06T19:11:16.571Z,87.52
2022-09-06T19:13:45.470Z,87.83
2022-09-06T19:16:14.170Z,87.64
2022-09-06T19:18:41.910Z,87.38
2022-09-06T19:21:14.618Z,88.62
2022-09-06T19:23:44.906Z,88.49
2022-09-06T19:26:14.645Z,88.30
2022-09-06T19:28:41.615Z,88.22
2022-09-06T19:31:15.941Z,87.98
2022-09-06T19:33:44.498Z,88.59
2022-09-06T19:36:12.612Z,89.44
2022-09-06T19:39:02.519Z,89.23
2022-09-06T19:41:28.848Z,91.90
2022-09-06T19:43:57.254Z,92.74
2022-09-06T19:46:25.105Z,93.26
2022-09-06T19:48:54.235Z,94.30
2022-09-06T19:51:21.855Z,94.61
2022-09-06T19:53:54.168Z,94.57
2022-09-06T19:56:23.723Z,95.04
2022-09-06T19:58:53.792Z,95.89
2022-09-06T20:01:20.998Z,95.97
2022-09-06T20:03:48.444Z,96.78
2022-09-06T20:06:15.655Z,97.03
2022-09-06T20:08:42.650Z,97.07
2022-09-06T20:11:12.729Z,98.19
2022-09-06T20:13:40.518Z,99.17
2022-09-06T20:16:09.583Z,99.56
2022-09-06T20:18:37.846Z,100.00
2022-09-06T20:21:06.004Z,100.00
2022-09-06T20:23:34.547Z,100.00
2022-09-06T20:26:07.265Z,100.00
2022-09-06T20:28:35.023Z,100.00
2022-09-06T20:31:04.561Z,100.00
2022-09-06T20:33:32.419Z,100.00
2022-09-06T20:36:04.928Z,100.00
2022-09-06T20:38:33.894Z,100.00
2022-09-06T20:41:10.064Z,100.00
2022-09-06T20:43:38.669Z,100.00
2022-09-06T20:46:17.492Z,100.00
2022-09-06T20:48:45.830Z,100.00
2022-09-06T20:51:15.987Z,100.00
2022-09-06T20:53:42.828Z,100.00
2022-09-06T20:56:16.045Z,100.00
2022-09-06T20:58:47.429Z,100.00
2022-09-06T21:01:16.648Z,100.00
2022-09-06T21:03:43.477Z,100.00
2022-09-06T21:06:12.390Z,100.00
2022-09-06T21:08:42.647Z,100.00
2022-09-06T21:11:10.393Z,100.00
2022-09-06T21:13:38.095Z,100.00
2022-09-06T21:16:06.382Z,100.00
2022-09-06T21:18:34.704Z,100.00
2022-09-06T21:21:04.783Z,100.00
2022-09-06T21:23:35.050Z,100.00
2022-09-06T21:26:04.811Z,100.00
2022-09-06T21:28:34.150Z,100.00
2022-09-06T21:31:15.991Z,100.00
2022-09-06T21:33:48.389Z,100.00
2022-09-06T21:36:17.460Z,100.00
2022-09-06T21:38:46.670Z,100.00
2022-09-06T21:41:15.089Z,100.00
2022-09-06T21:43:42.957Z,100.00
2022-09-06T21:46:15.372Z,100.00
2022-09-06T21:48:44.431Z,100.00
2022-09-06T21:51:16.200Z,99.88
2022-09-06T21:53:45.887Z,99.56
2022-09-06T21:56:13.366Z,99.54
2022-09-06T21:58:40.587Z,99.53
2022-09-06T22:01:08.864Z,99.22
2022-09-06T22:03:39.131Z,98.46
2022-09-06T22:06:11.611Z,98.06
2022-09-06T22:08:39.109Z,98.30
2022-09-06T22:11:10.085Z,97.98
2022-09-06T22:13:37.261Z,98.05
2022-09-06T22:16:07.812Z,98.37
2022-09-06T22:18:35.972Z,98.08
2022-09-06T22:21:05.679Z,97.81
2022-09-06T22:23:33.369Z,97.87
2022-09-06T22:26:12.083Z,98.19
2022-09-06T22:28:40.380Z,97.66
2022-09-06T22:31:08.461Z,98.00
2022-09-06T22:33:35.746Z,97.43
2022-09-06T22:36:03.851Z,97.32
2022-09-06T22:38:31.253Z,97.30
2022-09-06T22:40:58.518Z,98.42
2022-09-06T22:43:26.418Z,97.89
2022-09-06T22:45:53.357Z,97.72
2022-09-06T22:48:20.590Z,97.30
2022-09-06T22:50:47.693Z,97.44
2022-09-06T22:53:14.656Z,98.26
2022-09-06T22:55:47.265Z,98.84
2022-09-06T22:58:14.411Z,99.50
2022-09-06T23:00:41.355Z,99.65
2022-09-06T23:03:08.269Z,99.66
2022-09-06T23:05:35.715Z,99.71
2022-09-06T23:08:03.699Z,99.05
2022-09-06T23:10:31.462Z,98.48
2022-09-06T23:12:59.007Z,98.86
2022-09-06T23:15:26.127Z,98.68
2022-09-06T23:17:53.136Z,98.62
2022-09-06T23:20:20.164Z,99.33
2022-09-06T23:22:48.092Z,100.00
2022-09-06T23:25:15.040Z,100.00
2022-09-06T23:27:42.205Z,100.00
2022-09-06T23:30:10.035Z,100.00
2022-09-06T23:32:38.096Z,100.00
2022-09-06T23:35:05.940Z,100.00
2022-09-06T23:37:32.848Z,100.00
2022-09-06T23:39:59.717Z,100.00
2022-09-06T23:42:26.956Z,100.00
2022-09-06T23:44:57.616Z,100.00
2022-09-06T23:47:24.842Z,100.00
2022-09-06T23:49:51.993Z,100.00
2022-09-06T23:52:19.042Z,100.00
2022-09-06T23:54:45.899Z,100.00
2022-09-06T23:57:13.028Z,100.00
2022-09-06T23:59:39.922Z,100.00
